sensor_id;sensor_type;location;lat;lon;timestamp;P1;durP1;ratioP1;P2;durP2;ratioP2
14247;SDS011;7208;49.826;6.004;2023-04-16T00:01:15;0.60;;;0.60;;
14247;SDS011;7208;49.826;6.004;2023-04-16T00:03:41;0.50;;;0.50;;
14247;SDS011;7208;49.826;6.004;2023-04-16T00:06:09;0.77;;;0.77;;
14247;SDS011;7208;49.826;6.004;2023-04-16T00:08:36;0.67;;;0.50;;
14247;SDS011;7208;49.826;6.004;2023-04-16T00:11:02;0.40;;;0.40;;
14247;SDS011;7208;49.826;6.004;2023-04-16T00:13:28;0.67;;;0.67;;
14247;SDS011;7208;49.826;6.004;2023-04-16T00:15:54;1.13;;;0.60;;
14247;SDS011;7208;49.826;6.004;2023-04-16T00:18:20;0.53;;;0.53;;
14247;SDS011;7208;49.826;6.004;2023-04-16T00:20:47;0.60;;;0.60;;
14247;SDS011;7208;49.826;6.004;2023-04-16T00:23:13;0.40;;;0.40;;
14247;SDS011;7208;49.826;6.004;2023-04-16T00:25:39;0.67;;;0.67;;
14247;SDS011;7208;49.826;6.004;2023-04-16T00:28:06;0.60;;;0.60;;
14247;SDS011;7208;49.826;6.004;2023-04-16T00:30:32;0.70;;;0.70;;
14247;SDS011;7208;49.826;6.004;2023-04-16T00:32:59;0.60;;;0.60;;
14247;SDS011;7208;49.826;6.004;2023-04-16T00:35:25;0.60;;;0.60;;
14247;SDS011;7208;49.826;6.004;2023-04-16T00:37:51;3.37;;;0.90;;
14247;SDS011;7208;49.826;6.004;2023-04-16T00:40:17;0.83;;;0.83;;
14247;SDS011;7208;49.826;6.004;2023-04-16T00:42:44;0.80;;;0.80;;
14247;SDS011;7208;49.826;6.004;2023-04-16T00:45:10;0.87;;;0.87;;
14247;SDS011;7208;49.826;6.004;2023-04-16T00:47:36;1.07;;;1.07;;
14247;SDS011;7208;49.826;6.004;2023-04-16T00:50:03;1.10;;;1.10;;
14247;SDS011;7208;49.826;6.004;2023-04-16T00:52:32;0.90;;;0.90;;
14247;SDS011;7208;49.826;6.004;2023-04-16T00:54:59;2.23;;;1.13;;
14247;SDS011;7208;49.826;6.004;2023-04-16T00:57:25;1.57;;;1.47;;
14247;SDS011;7208;49.826;6.004;2023-04-16T00:59:52;1.10;;;1.10;;
14247;SDS011;7208;49.826;6.004;2023-04-16T01:02:18;1.40;;;1.30;;
14247;SDS011;7208;49.826;6.004;2023-04-16T01:04:44;1.70;;;1.43;;
14247;SDS011;7208;49.826;6.004;2023-04-16T01:07:10;1.63;;;1.53;;
14247;SDS011;7208;49.826;6.004;2023-04-16T01:09:36;1.43;;;1.20;;
14247;SDS011;7208;49.826;6.004;2023-04-16T01:12:02;1.60;;;1.50;;
14247;SDS011;7208;49.826;6.004;2023-04-16T01:14:28;2.27;;;1.30;;
14247;SDS011;7208;49.826;6.004;2023-04-16T01:17:00;1.60;;;1.50;;
14247;SDS011;7208;49.826;6.004;2023-04-16T01:19:26;1.70;;;1.60;;
14247;SDS011;7208;49.826;6.004;2023-04-16T01:21:53;1.57;;;1.47;;
14247;SDS011;7208;49.826;6.004;2023-04-16T01:24:19;1.40;;;1.30;;
14247;SDS011;7208;49.826;6.004;2023-04-16T01:26:45;1.77;;;1.27;;
14247;SDS011;7208;49.826;6.004;2023-04-16T01:29:11;1.43;;;1.33;;
14247;SDS011;7208;49.826;6.004;2023-04-16T01:31:37;2.80;;;1.43;;
14247;SDS011;7208;49.826;6.004;2023-04-16T01:34:03;2.00;;;1.43;;
14247;SDS011;7208;49.826;6.004;2023-04-16T01:36:29;1.37;;;1.27;;
14247;SDS011;7208;49.826;6.004;2023-04-16T01:38:55;1.40;;;1.30;;
14247;SDS011;7208;49.826;6.004;2023-04-16T01:41:21;1.40;;;1.30;;
14247;SDS011;7208;49.826;6.004;2023-04-16T01:43:47;1.23;;;1.20;;
14247;SDS011;7208;49.826;6.004;2023-04-16T01:46:19;1.33;;;1.23;;
14247;SDS011;7208;49.826;6.004;2023-04-16T01:48:48;1.53;;;1.20;;
14247;SDS011;7208;49.826;6.004;2023-04-16T01:51:14;1.50;;;1.20;;
14247;SDS011;7208;49.826;6.004;2023-04-16T01:53:40;1.00;;;0.90;;
14247;SDS011;7208;49.826;6.004;2023-04-16T01:56:06;0.80;;;0.80;;
14247;SDS011;7208;49.826;6.004;2023-04-16T01:58:32;1.00;;;1.00;;
14247;SDS011;7208;49.826;6.004;2023-04-16T02:00:58;1.10;;;1.10;;
14247;SDS011;7208;49.826;6.004;2023-04-16T02:03:24;0.90;;;0.90;;
14247;SDS011;7208;49.826;6.004;2023-04-16T02:05:50;1.07;;;0.93;;
14247;SDS011;7208;49.826;6.004;2023-04-16T02:08:16;1.07;;;1.00;;
14247;SDS011;7208;49.826;6.004;2023-04-16T02:10:46;1.00;;;1.00;;
14247;SDS011;7208;49.826;6.004;2023-04-16T02:13:13;1.10;;;1.00;;
14247;SDS011;7208;49.826;6.004;2023-04-16T02:15:43;0.97;;;0.97;;
14247;SDS011;7208;49.826;6.004;2023-04-16T02:18:09;0.87;;;0.80;;
14247;SDS011;7208;49.826;6.004;2023-04-16T02:20:38;1.00;;;0.90;;
14247;SDS011;7208;49.826;6.004;2023-04-16T02:23:04;0.80;;;0.80;;
14247;SDS011;7208;49.826;6.004;2023-04-16T02:25:30;1.10;;;0.80;;
14247;SDS011;7208;49.826;6.004;2023-04-16T02:27:57;1.40;;;1.30;;
14247;SDS011;7208;49.826;6.004;2023-04-16T02:30:22;1.37;;;1.00;;
14247;SDS011;7208;49.826;6.004;2023-04-16T02:32:49;1.27;;;0.80;;
14247;SDS011;7208;49.826;6.004;2023-04-16T02:35:15;0.80;;;0.80;;
14247;SDS011;7208;49.826;6.004;2023-04-16T02:37:41;1.70;;;0.97;;
14247;SDS011;7208;49.826;6.004;2023-04-16T02:40:07;0.97;;;0.80;;
14247;SDS011;7208;49.826;6.004;2023-04-16T02:42:33;0.90;;;0.90;;
14247;SDS011;7208;49.826;6.004;2023-04-16T02:44:59;1.03;;;1.00;;
14247;SDS011;7208;49.826;6.004;2023-04-16T02:47:25;1.10;;;1.00;;
14247;SDS011;7208;49.826;6.004;2023-04-16T02:49:51;0.93;;;0.93;;
14247;SDS011;7208;49.826;6.004;2023-04-16T02:52:17;1.03;;;1.03;;
14247;SDS011;7208;49.826;6.004;2023-04-16T02:54:43;1.83;;;1.20;;
14247;SDS011;7208;49.826;6.004;2023-04-16T02:57:09;0.90;;;0.90;;
14247;SDS011;7208;49.826;6.004;2023-04-16T02:59:35;1.43;;;1.33;;
14247;SDS011;7208;49.826;6.004;2023-04-16T03:02:01;1.67;;;1.58;;
14247;SDS011;7208;49.826;6.004;2023-04-16T03:04:27;1.37;;;1.30;;
14247;SDS011;7208;49.826;6.004;2023-04-16T03:06:53;1.13;;;1.10;;
14247;SDS011;7208;49.826;6.004;2023-04-16T03:09:20;1.00;;;1.00;;
14247;SDS011;7208;49.826;6.004;2023-04-16T03:11:46;1.47;;;1.37;;
14247;SDS011;7208;49.826;6.004;2023-04-16T03:14:11;1.40;;;1.30;;
14247;SDS011;7208;49.826;6.004;2023-04-16T03:16:37;1.50;;;1.40;;
14247;SDS011;7208;49.826;6.004;2023-04-16T03:19:03;1.60;;;1.50;;
14247;SDS011;7208;49.826;6.004;2023-04-16T03:21:30;1.27;;;1.17;;
14247;SDS011;7208;49.826;6.004;2023-04-16T03:23:56;1.30;;;1.20;;
14247;SDS011;7208;49.826;6.004;2023-04-16T03:26:22;1.50;;;1.40;;
14247;SDS011;7208;49.826;6.004;2023-04-16T03:28:48;1.70;;;1.60;;
14247;SDS011;7208;49.826;6.004;2023-04-16T03:31:14;2.03;;;1.87;;
14247;SDS011;7208;49.826;6.004;2023-04-16T03:33:40;2.07;;;1.80;;
14247;SDS011;7208;49.826;6.004;2023-04-16T03:36:06;2.00;;;1.57;;
14247;SDS011;7208;49.826;6.004;2023-04-16T03:38:32;1.60;;;1.50;;
14247;SDS011;7208;49.826;6.004;2023-04-16T03:40:58;1.60;;;1.50;;
14247;SDS011;7208;49.826;6.004;2023-04-16T03:43:24;1.40;;;1.30;;
14247;SDS011;7208;49.826;6.004;2023-04-16T03:45:50;1.70;;;1.60;;
14247;SDS011;7208;49.826;6.004;2023-04-16T03:48:16;1.80;;;1.70;;
14247;SDS011;7208;49.826;6.004;2023-04-16T03:50:46;1.70;;;1.60;;
14247;SDS011;7208;49.826;6.004;2023-04-16T03:53:12;2.80;;;1.70;;
14247;SDS011;7208;49.826;6.004;2023-04-16T03:55:39;1.77;;;1.57;;
14247;SDS011;7208;49.826;6.004;2023-04-16T03:58:05;1.87;;;1.77;;
14247;SDS011;7208;49.826;6.004;2023-04-16T04:00:31;1.93;;;1.70;;
14247;SDS011;7208;49.826;6.004;2023-04-16T04:02:57;1.93;;;1.83;;
14247;SDS011;7208;49.826;6.004;2023-04-16T04:05:23;2.30;;;2.10;;
14247;SDS011;7208;49.826;6.004;2023-04-16T04:07:49;1.83;;;1.73;;
14247;SDS011;7208;49.826;6.004;2023-04-16T04:10:15;2.53;;;2.03;;
14247;SDS011;7208;49.826;6.004;2023-04-16T04:12:41;1.90;;;1.43;;
14247;SDS011;7208;49.826;6.004;2023-04-16T04:15:08;2.20;;;2.00;;
14247;SDS011;7208;49.826;6.004;2023-04-16T04:17:34;2.17;;;2.07;;
14247;SDS011;7208;49.826;6.004;2023-04-16T04:20:00;2.40;;;2.20;;
14247;SDS011;7208;49.826;6.004;2023-04-16T04:22:26;2.43;;;2.23;;
14247;SDS011;7208;49.826;6.004;2023-04-16T04:24:52;2.63;;;2.43;;
14247;SDS011;7208;49.826;6.004;2023-04-16T04:27:18;2.83;;;2.50;;
14247;SDS011;7208;49.826;6.004;2023-04-16T04:29:44;2.33;;;2.13;;
14247;SDS011;7208;49.826;6.004;2023-04-16T04:32:10;2.40;;;2.20;;
14247;SDS011;7208;49.826;6.004;2023-04-16T04:34:36;2.43;;;2.10;;
14247;SDS011;7208;49.826;6.004;2023-04-16T04:37:02;2.37;;;2.17;;
14247;SDS011;7208;49.826;6.004;2023-04-16T04:39:28;3.03;;;2.30;;
14247;SDS011;7208;49.826;6.004;2023-04-16T04:41:54;2.03;;;1.93;;
14247;SDS011;7208;49.826;6.004;2023-04-16T04:44:20;2.30;;;2.10;;
14247;SDS011;7208;49.826;6.004;2023-04-16T04:46:46;2.33;;;2.13;;
14247;SDS011;7208;49.826;6.004;2023-04-16T04:49:12;2.10;;;1.90;;
14247;SDS011;7208;49.826;6.004;2023-04-16T04:51:38;2.40;;;2.07;;
14247;SDS011;7208;49.826;6.004;2023-04-16T04:54:04;3.20;;;2.10;;
14247;SDS011;7208;49.826;6.004;2023-04-16T04:56:30;2.07;;;1.87;;
14247;SDS011;7208;49.826;6.004;2023-04-16T04:58:56;2.07;;;1.97;;
14247;SDS011;7208;49.826;6.004;2023-04-16T05:01:22;2.23;;;2.03;;
14247;SDS011;7208;49.826;6.004;2023-04-16T05:03:48;3.20;;;2.67;;
14247;SDS011;7208;49.826;6.004;2023-04-16T05:06:15;2.67;;;2.30;;
14247;SDS011;7208;49.826;6.004;2023-04-16T05:08:41;2.00;;;1.70;;
14247;SDS011;7208;49.826;6.004;2023-04-16T05:11:07;2.50;;;2.30;;
14247;SDS011;7208;49.826;6.004;2023-04-16T05:13:33;3.57;;;2.50;;
14247;SDS011;7208;49.826;6.004;2023-04-16T05:15:59;2.80;;;2.57;;
14247;SDS011;7208;49.826;6.004;2023-04-16T05:18:25;2.60;;;2.40;;
14247;SDS011;7208;49.826;6.004;2023-04-16T05:20:51;2.50;;;2.30;;
14247;SDS011;7208;49.826;6.004;2023-04-16T05:23:17;2.37;;;2.17;;
14247;SDS011;7208;49.826;6.004;2023-04-16T05:25:43;2.40;;;2.20;;
14247;SDS011;7208;49.826;6.004;2023-04-16T05:28:09;2.47;;;2.27;;
14247;SDS011;7208;49.826;6.004;2023-04-16T05:30:35;2.50;;;2.23;;
14247;SDS011;7208;49.826;6.004;2023-04-16T05:33:01;2.60;;;2.40;;
14247;SDS011;7208;49.826;6.004;2023-04-16T05:35:27;2.33;;;2.13;;
14247;SDS011;7208;49.826;6.004;2023-04-16T05:37:53;2.83;;;2.33;;
14247;SDS011;7208;49.826;6.004;2023-04-16T05:40:19;2.63;;;2.43;;
14247;SDS011;7208;49.826;6.004;2023-04-16T05:42:45;2.83;;;2.30;;
14247;SDS011;7208;49.826;6.004;2023-04-16T05:45:11;2.37;;;2.13;;
14247;SDS011;7208;49.826;6.004;2023-04-16T05:47:37;2.40;;;2.20;;
14247;SDS011;7208;49.826;6.004;2023-04-16T05:50:03;3.13;;;2.60;;
14247;SDS011;7208;49.826;6.004;2023-04-16T05:52:30;2.80;;;2.20;;
14247;SDS011;7208;49.826;6.004;2023-04-16T05:54:56;3.23;;;2.60;;
14247;SDS011;7208;49.826;6.004;2023-04-16T05:57:25;2.57;;;2.37;;
14247;SDS011;7208;49.826;6.004;2023-04-16T05:59:51;3.07;;;2.23;;
14247;SDS011;7208;49.826;6.004;2023-04-16T06:02:17;2.87;;;2.10;;
14247;SDS011;7208;49.826;6.004;2023-04-16T06:04:43;2.73;;;2.20;;
14247;SDS011;7208;49.826;6.004;2023-04-16T06:07:09;2.30;;;2.10;;
14247;SDS011;7208;49.826;6.004;2023-04-16T06:09:35;3.20;;;2.43;;
14247;SDS011;7208;49.826;6.004;2023-04-16T06:12:01;2.60;;;2.03;;
14247;SDS011;7208;49.826;6.004;2023-04-16T06:14:27;2.60;;;1.97;;
14247;SDS011;7208;49.826;6.004;2023-04-16T06:16:53;3.07;;;2.33;;
14247;SDS011;7208;49.826;6.004;2023-04-16T06:19:19;2.23;;;2.03;;
14247;SDS011;7208;49.826;6.004;2023-04-16T06:21:45;2.20;;;2.00;;
14247;SDS011;7208;49.826;6.004;2023-04-16T06:24:11;4.77;;;2.70;;
14247;SDS011;7208;49.826;6.004;2023-04-16T06:26:37;2.87;;;2.57;;
14247;SDS011;7208;49.826;6.004;2023-04-16T06:29:03;2.27;;;1.60;;
14247;SDS011;7208;49.826;6.004;2023-04-16T06:31:29;2.63;;;2.43;;
14247;SDS011;7208;49.826;6.004;2023-04-16T06:33:55;2.20;;;2.00;;
14247;SDS011;7208;49.826;6.004;2023-04-16T06:36:21;2.87;;;2.03;;
14247;SDS011;7208;49.826;6.004;2023-04-16T06:38:47;2.30;;;1.90;;
14247;SDS011;7208;49.826;6.004;2023-04-16T06:41:13;2.20;;;2.00;;
14247;SDS011;7208;49.826;6.004;2023-04-16T06:43:39;2.30;;;1.60;;
14247;SDS011;7208;49.826;6.004;2023-04-16T06:46:05;2.20;;;2.00;;
14247;SDS011;7208;49.826;6.004;2023-04-16T06:48:31;2.10;;;1.83;;
14247;SDS011;7208;49.826;6.004;2023-04-16T06:50:57;2.43;;;1.90;;
14247;SDS011;7208;49.826;6.004;2023-04-16T06:53:24;2.37;;;2.03;;
14247;SDS011;7208;49.826;6.004;2023-04-16T06:55:50;2.10;;;1.90;;
14247;SDS011;7208;49.826;6.004;2023-04-16T06:58:16;3.13;;;2.10;;
14247;SDS011;7208;49.826;6.004;2023-04-16T07:00:42;2.80;;;2.03;;
14247;SDS011;7208;49.826;6.004;2023-04-16T07:03:08;2.57;;;1.90;;
14247;SDS011;7208;49.826;6.004;2023-04-16T07:05:34;2.67;;;1.87;;
14247;SDS011;7208;49.826;6.004;2023-04-16T07:08:00;2.50;;;2.07;;
14247;SDS011;7208;49.826;6.004;2023-04-16T07:10:26;1.83;;;1.70;;
14247;SDS011;7208;49.826;6.004;2023-04-16T07:12:52;1.50;;;1.40;;
14247;SDS011;7208;49.826;6.004;2023-04-16T07:15:18;2.30;;;2.10;;
14247;SDS011;7208;49.826;6.004;2023-04-16T07:17:44;2.30;;;1.80;;
14247;SDS011;7208;49.826;6.004;2023-04-16T07:20:10;2.80;;;2.13;;
14247;SDS011;7208;49.826;6.004;2023-04-16T07:22:36;2.27;;;2.03;;
14247;SDS011;7208;49.826;6.004;2023-04-16T07:25:02;3.13;;;1.70;;
14247;SDS011;7208;49.826;6.004;2023-04-16T07:27:28;2.33;;;1.93;;
14247;SDS011;7208;49.826;6.004;2023-04-16T07:29:54;3.00;;;2.20;;
14247;SDS011;7208;49.826;6.004;2023-04-16T07:32:20;1.93;;;1.77;;
14247;SDS011;7208;49.826;6.004;2023-04-16T07:34:46;2.43;;;2.10;;
14247;SDS011;7208;49.826;6.004;2023-04-16T07:37:12;2.77;;;1.70;;
14247;SDS011;7208;49.826;6.004;2023-04-16T07:39:38;2.50;;;1.73;;
14247;SDS011;7208;49.826;6.004;2023-04-16T07:42:04;2.03;;;1.83;;
14247;SDS011;7208;49.826;6.004;2023-04-16T07:44:31;2.90;;;2.47;;
14247;SDS011;7208;49.826;6.004;2023-04-16T07:46:57;2.50;;;2.30;;
14247;SDS011;7208;49.826;6.004;2023-04-16T07:49:23;2.30;;;2.00;;
14247;SDS011;7208;49.826;6.004;2023-04-16T07:51:49;3.20;;;2.60;;
14247;SDS011;7208;49.826;6.004;2023-04-16T07:54:15;2.30;;;2.10;;
14247;SDS011;7208;49.826;6.004;2023-04-16T07:56:41;1.97;;;1.77;;
14247;SDS011;7208;49.826;6.004;2023-04-16T07:59:07;1.83;;;1.73;;
14247;SDS011;7208;49.826;6.004;2023-04-16T08:01:33;2.20;;;2.00;;
14247;SDS011;7208;49.826;6.004;2023-04-16T08:03:59;2.57;;;2.10;;
14247;SDS011;7208;49.826;6.004;2023-04-16T08:06:25;2.33;;;2.13;;
14247;SDS011;7208;49.826;6.004;2023-04-16T08:08:51;2.53;;;2.17;;
14247;SDS011;7208;49.826;6.004;2023-04-16T08:11:17;2.87;;;1.83;;
14247;SDS011;7208;49.826;6.004;2023-04-16T08:13:43;2.17;;;2.00;;
14247;SDS011;7208;49.826;6.004;2023-04-16T08:16:09;2.23;;;2.03;;
14247;SDS011;7208;49.826;6.004;2023-04-16T08:18:35;2.13;;;1.93;;
14247;SDS011;7208;49.826;6.004;2023-04-16T08:21:01;3.30;;;1.90;;
14247;SDS011;7208;49.826;6.004;2023-04-16T08:23:27;2.30;;;2.10;;
14247;SDS011;7208;49.826;6.004;2023-04-16T08:25:53;2.10;;;1.80;;
14247;SDS011;7208;49.826;6.004;2023-04-16T08:28:19;2.10;;;1.90;;
14247;SDS011;7208;49.826;6.004;2023-04-16T08:30:45;2.17;;;1.97;;
14247;SDS011;7208;49.826;6.004;2023-04-16T08:33:12;2.13;;;2.03;;
14247;SDS011;7208;49.826;6.004;2023-04-16T08:35:38;2.57;;;1.90;;
14247;SDS011;7208;49.826;6.004;2023-04-16T08:38:05;1.70;;;1.60;;
14247;SDS011;7208;49.826;6.004;2023-04-16T08:40:31;1.60;;;1.50;;
14247;SDS011;7208;49.826;6.004;2023-04-16T08:42:59;2.10;;;1.90;;
14247;SDS011;7208;49.826;6.004;2023-04-16T08:45:27;2.03;;;1.80;;
14247;SDS011;7208;49.826;6.004;2023-04-16T08:47:53;1.77;;;1.67;;
14247;SDS011;7208;49.826;6.004;2023-04-16T08:50:24;4.53;;;2.13;;
14247;SDS011;7208;49.826;6.004;2023-04-16T08:55:18;1.80;;;1.60;;
14247;SDS011;7208;49.826;6.004;2023-04-16T08:57:47;1.73;;;1.63;;
14247;SDS011;7208;49.826;6.004;2023-04-16T09:00:15;1.80;;;1.70;;
14247;SDS011;7208;49.826;6.004;2023-04-16T09:02:41;1.50;;;1.40;;
14247;SDS011;7208;49.826;6.004;2023-04-16T09:05:07;1.50;;;1.40;;
14247;SDS011;7208;49.826;6.004;2023-04-16T09:07:34;1.60;;;1.50;;
14247;SDS011;7208;49.826;6.004;2023-04-16T09:10:01;1.60;;;1.50;;
14247;SDS011;7208;49.826;6.004;2023-04-16T09:12:29;1.67;;;1.43;;
14247;SDS011;7208;49.826;6.004;2023-04-16T09:14:55;1.53;;;1.43;;
14247;SDS011;7208;49.826;6.004;2023-04-16T09:17:25;1.80;;;1.60;;
14247;SDS011;7208;49.826;6.004;2023-04-16T09:19:51;1.53;;;1.33;;
14247;SDS011;7208;49.826;6.004;2023-04-16T09:22:18;1.40;;;1.30;;
14247;SDS011;7208;49.826;6.004;2023-04-16T09:24:44;1.90;;;1.80;;
14247;SDS011;7208;49.826;6.004;2023-04-16T09:27:10;1.70;;;1.60;;
14247;SDS011;7208;49.826;6.004;2023-04-16T09:29:40;1.70;;;1.60;;
14247;SDS011;7208;49.826;6.004;2023-04-16T09:32:07;1.80;;;1.63;;
14247;SDS011;7208;49.826;6.004;2023-04-16T09:34:34;1.60;;;1.50;;
14247;SDS011;7208;49.826;6.004;2023-04-16T09:37:13;1.50;;;1.40;;
14247;SDS011;7208;49.826;6.004;2023-04-16T09:39:41;1.70;;;1.60;;
14247;SDS011;7208;49.826;6.004;2023-04-16T09:42:07;1.60;;;1.50;;
14247;SDS011;7208;49.826;6.004;2023-04-16T09:44:37;1.80;;;1.70;;
14247;SDS011;7208;49.826;6.004;2023-04-16T09:47:07;1.90;;;1.80;;
14247;SDS011;7208;49.826;6.004;2023-04-16T09:49:33;2.13;;;1.97;;
14247;SDS011;7208;49.826;6.004;2023-04-16T09:52:03;1.83;;;1.73;;
14247;SDS011;7208;49.826;6.004;2023-04-16T09:54:33;1.80;;;1.70;;
14247;SDS011;7208;49.826;6.004;2023-04-16T09:56:59;1.83;;;1.70;;
14247;SDS011;7208;49.826;6.004;2023-04-16T09:59:26;1.70;;;1.60;;
14247;SDS011;7208;49.826;6.004;2023-04-16T10:01:58;2.33;;;2.00;;
14247;SDS011;7208;49.826;6.004;2023-04-16T10:04:25;1.90;;;1.80;;
14247;SDS011;7208;49.826;6.004;2023-04-16T10:07:01;1.80;;;1.70;;
14247;SDS011;7208;49.826;6.004;2023-04-16T10:09:30;1.90;;;1.80;;
14247;SDS011;7208;49.826;6.004;2023-04-16T10:11:57;1.60;;;1.50;;
14247;SDS011;7208;49.826;6.004;2023-04-16T10:14:23;1.80;;;1.70;;
14247;SDS011;7208;49.826;6.004;2023-04-16T10:16:49;1.80;;;1.70;;
14247;SDS011;7208;49.826;6.004;2023-04-16T10:19:15;1.70;;;1.60;;
14247;SDS011;7208;49.826;6.004;2023-04-16T10:21:41;1.67;;;1.57;;
14247;SDS011;7208;49.826;6.004;2023-04-16T10:24:07;1.80;;;1.70;;
14247;SDS011;7208;49.826;6.004;2023-04-16T10:26:34;1.67;;;1.57;;
14247;SDS011;7208;49.826;6.004;2023-04-16T10:29:00;2.20;;;2.10;;
14247;SDS011;7208;49.826;6.004;2023-04-16T10:31:27;1.80;;;1.70;;
14247;SDS011;7208;49.826;6.004;2023-04-16T10:33:53;1.77;;;1.67;;
14247;SDS011;7208;49.826;6.004;2023-04-16T10:36:24;1.73;;;1.63;;
14247;SDS011;7208;49.826;6.004;2023-04-16T10:38:56;1.50;;;1.40;;
14247;SDS011;7208;49.826;6.004;2023-04-16T10:41:24;1.53;;;1.43;;
14247;SDS011;7208;49.826;6.004;2023-04-16T10:43:50;1.70;;;1.60;;
14247;SDS011;7208;49.826;6.004;2023-04-16T10:48:46;1.50;;;1.40;;
14247;SDS011;7208;49.826;6.004;2023-04-16T10:51:55;1.50;;;1.40;;
14247;SDS011;7208;49.826;6.004;2023-04-16T10:54:23;1.73;;;1.53;;
14247;SDS011;7208;49.826;6.004;2023-04-16T10:56:48;1.67;;;1.57;;
14247;SDS011;7208;49.826;6.004;2023-04-16T10:59:16;1.80;;;1.70;;
14247;SDS011;7208;49.826;6.004;2023-04-16T11:01:43;2.00;;;1.80;;
14247;SDS011;7208;49.826;6.004;2023-04-16T11:04:43;1.50;;;1.40;;
14247;SDS011;7208;49.826;6.004;2023-04-16T11:07:13;1.37;;;1.27;;
14247;SDS011;7208;49.826;6.004;2023-04-16T11:09:56;2.70;;;1.70;;
14247;SDS011;7208;49.826;6.004;2023-04-16T11:15:05;1.40;;;1.30;;
14247;SDS011;7208;49.826;6.004;2023-04-16T11:20:01;1.20;;;1.20;;
14247;SDS011;7208;49.826;6.004;2023-04-16T11:22:27;1.40;;;1.30;;
14247;SDS011;7208;49.826;6.004;2023-04-16T11:24:54;1.43;;;1.33;;
14247;SDS011;7208;49.826;6.004;2023-04-16T11:27:21;1.60;;;1.50;;
14247;SDS011;7208;49.826;6.004;2023-04-16T11:29:55;1.40;;;1.30;;
14247;SDS011;7208;49.826;6.004;2023-04-16T11:32:21;1.47;;;1.37;;
14247;SDS011;7208;49.826;6.004;2023-04-16T11:34:47;1.37;;;1.27;;
14247;SDS011;7208;49.826;6.004;2023-04-16T11:37:14;1.80;;;1.70;;
14247;SDS011;7208;49.826;6.004;2023-04-16T11:39:47;1.47;;;1.37;;
14247;SDS011;7208;49.826;6.004;2023-04-16T11:42:17;1.23;;;1.20;;
14247;SDS011;7208;49.826;6.004;2023-04-16T11:44:43;1.60;;;1.50;;
14247;SDS011;7208;49.826;6.004;2023-04-16T11:47:09;1.43;;;1.33;;
14247;SDS011;7208;49.826;6.004;2023-04-16T11:49:37;1.27;;;1.23;;
14247;SDS011;7208;49.826;6.004;2023-04-16T11:52:03;1.30;;;1.20;;
14247;SDS011;7208;49.826;6.004;2023-04-16T11:54:30;1.40;;;1.30;;
14247;SDS011;7208;49.826;6.004;2023-04-16T11:56:58;1.40;;;1.30;;
14247;SDS011;7208;49.826;6.004;2023-04-16T11:59:25;1.80;;;1.70;;
14247;SDS011;7208;49.826;6.004;2023-04-16T12:01:52;1.50;;;1.40;;
14247;SDS011;7208;49.826;6.004;2023-04-16T12:04:25;1.83;;;1.60;;
14247;SDS011;7208;49.826;6.004;2023-04-16T12:09:30;1.47;;;1.37;;
14247;SDS011;7208;49.826;6.004;2023-04-16T12:11:56;1.50;;;1.40;;
14247;SDS011;7208;49.826;6.004;2023-04-16T12:14:22;1.70;;;1.60;;
14247;SDS011;7208;49.826;6.004;2023-04-16T12:16:48;1.60;;;1.50;;
14247;SDS011;7208;49.826;6.004;2023-04-16T12:19:14;1.60;;;1.50;;
14247;SDS011;7208;49.826;6.004;2023-04-16T12:21:45;1.63;;;1.53;;
14247;SDS011;7208;49.826;6.004;2023-04-16T12:24:12;1.77;;;1.67;;
14247;SDS011;7208;49.826;6.004;2023-04-16T12:26:42;1.40;;;1.30;;
14247;SDS011;7208;49.826;6.004;2023-04-16T12:29:30;1.60;;;1.50;;
14247;SDS011;7208;49.826;6.004;2023-04-16T12:31:55;1.50;;;1.40;;
14247;SDS011;7208;49.826;6.004;2023-04-16T12:34:21;1.30;;;1.20;;
14247;SDS011;7208;49.826;6.004;2023-04-16T12:36:48;1.40;;;1.30;;
14247;SDS011;7208;49.826;6.004;2023-04-16T12:39:27;1.40;;;1.30;;
14247;SDS011;7208;49.826;6.004;2023-04-16T12:41:53;1.87;;;1.77;;
14247;SDS011;7208;49.826;6.004;2023-04-16T12:44:19;1.80;;;1.70;;
14247;SDS011;7208;49.826;6.004;2023-04-16T12:46:45;1.70;;;1.60;;
14247;SDS011;7208;49.826;6.004;2023-04-16T12:49:11;1.23;;;1.13;;
14247;SDS011;7208;49.826;6.004;2023-04-16T12:51:37;1.60;;;1.50;;
14247;SDS011;7208;49.826;6.004;2023-04-16T12:54:04;1.40;;;1.30;;
14247;SDS011;7208;49.826;6.004;2023-04-16T12:56:31;1.53;;;1.43;;
14247;SDS011;7208;49.826;6.004;2023-04-16T12:58:57;1.57;;;1.47;;
14247;SDS011;7208;49.826;6.004;2023-04-16T13:01:24;1.20;;;1.10;;
14247;SDS011;7208;49.826;6.004;2023-04-16T13:03:50;1.13;;;1.13;;
14247;SDS011;7208;49.826;6.004;2023-04-16T13:06:16;2.07;;;1.30;;
14247;SDS011;7208;49.826;6.004;2023-04-16T13:08:42;1.37;;;1.27;;
14247;SDS011;7208;49.826;6.004;2023-04-16T13:11:08;1.40;;;1.27;;
14247;SDS011;7208;49.826;6.004;2023-04-16T13:13:35;1.40;;;1.30;;
14247;SDS011;7208;49.826;6.004;2023-04-16T13:16:01;1.30;;;1.20;;
14247;SDS011;7208;49.826;6.004;2023-04-16T13:18:32;1.23;;;1.17;;
14247;SDS011;7208;49.826;6.004;2023-04-16T13:20:58;1.30;;;1.20;;
14247;SDS011;7208;49.826;6.004;2023-04-16T13:23:24;1.33;;;1.23;;
14247;SDS011;7208;49.826;6.004;2023-04-16T13:25:51;1.77;;;1.40;;
14247;SDS011;7208;49.826;6.004;2023-04-16T13:28:17;1.33;;;1.23;;
14247;SDS011;7208;49.826;6.004;2023-04-16T13:30:43;1.47;;;1.37;;
14247;SDS011;7208;49.826;6.004;2023-04-16T13:33:11;1.70;;;1.60;;
14247;SDS011;7208;49.826;6.004;2023-04-16T13:35:37;1.70;;;1.60;;
14247;SDS011;7208;49.826;6.004;2023-04-16T13:38:03;1.57;;;1.47;;
14247;SDS011;7208;49.826;6.004;2023-04-16T13:40:30;1.43;;;1.33;;
14247;SDS011;7208;49.826;6.004;2023-04-16T13:42:56;1.33;;;1.23;;
14247;SDS011;7208;49.826;6.004;2023-04-16T13:45:22;1.40;;;1.30;;
14247;SDS011;7208;49.826;6.004;2023-04-16T13:47:48;1.50;;;1.40;;
14247;SDS011;7208;49.826;6.004;2023-04-16T13:50:14;1.50;;;1.40;;
14247;SDS011;7208;49.826;6.004;2023-04-16T13:52:40;1.60;;;1.50;;
14247;SDS011;7208;49.826;6.004;2023-04-16T13:55:06;1.50;;;1.40;;
14247;SDS011;7208;49.826;6.004;2023-04-16T13:57:33;1.23;;;1.13;;
14247;SDS011;7208;49.826;6.004;2023-04-16T13:59:59;1.50;;;1.40;;
14247;SDS011;7208;49.826;6.004;2023-04-16T14:02:25;1.80;;;1.70;;
14247;SDS011;7208;49.826;6.004;2023-04-16T14:04:51;1.60;;;1.50;;
14247;SDS011;7208;49.826;6.004;2023-04-16T14:07:17;1.73;;;1.63;;
14247;SDS011;7208;49.826;6.004;2023-04-16T14:09:46;1.67;;;1.57;;
14247;SDS011;7208;49.826;6.004;2023-04-16T14:12:12;1.87;;;1.77;;
14247;SDS011;7208;49.826;6.004;2023-04-16T14:14:38;2.00;;;1.90;;
14247;SDS011;7208;49.826;6.004;2023-04-16T14:17:04;2.00;;;1.87;;
14247;SDS011;7208;49.826;6.004;2023-04-16T14:19:31;2.30;;;2.10;;
14247;SDS011;7208;49.826;6.004;2023-04-16T14:21:57;2.43;;;2.07;;
14247;SDS011;7208;49.826;6.004;2023-04-16T14:24:23;2.47;;;2.27;;
14247;SDS011;7208;49.826;6.004;2023-04-16T14:26:49;1.80;;;1.70;;
14247;SDS011;7208;49.826;6.004;2023-04-16T14:29:15;2.70;;;2.50;;
14247;SDS011;7208;49.826;6.004;2023-04-16T14:31:41;2.50;;;2.13;;
14247;SDS011;7208;49.826;6.004;2023-04-16T14:34:07;2.23;;;2.07;;
14247;SDS011;7208;49.826;6.004;2023-04-16T14:36:34;2.30;;;2.10;;
14247;SDS011;7208;49.826;6.004;2023-04-16T14:39:00;2.77;;;2.57;;
14247;SDS011;7208;49.826;6.004;2023-04-16T14:41:26;2.87;;;2.57;;
14247;SDS011;7208;49.826;6.004;2023-04-16T14:43:52;2.97;;;2.50;;
14247;SDS011;7208;49.826;6.004;2023-04-16T14:46:18;2.17;;;2.00;;
14247;SDS011;7208;49.826;6.004;2023-04-16T14:48:44;2.50;;;2.30;;
14247;SDS011;7208;49.826;6.004;2023-04-16T14:51:10;2.80;;;2.60;;
14247;SDS011;7208;49.826;6.004;2023-04-16T14:53:36;2.80;;;2.50;;
14247;SDS011;7208;49.826;6.004;2023-04-16T14:56:03;2.80;;;2.60;;
14247;SDS011;7208;49.826;6.004;2023-04-16T14:58:29;2.87;;;2.60;;
14247;SDS011;7208;49.826;6.004;2023-04-16T15:00:56;2.63;;;2.17;;
14247;SDS011;7208;49.826;6.004;2023-04-16T15:03:23;2.73;;;2.53;;
14247;SDS011;7208;49.826;6.004;2023-04-16T15:05:49;2.97;;;2.70;;
14247;SDS011;7208;49.826;6.004;2023-04-16T15:08:19;3.00;;;2.73;;
14247;SDS011;7208;49.826;6.004;2023-04-16T15:10:45;2.90;;;2.70;;